Des Moines, IA (50311)

7:01 PM CST on February 05, 2016 (GMT -0600)
Waveland | | Change Station
CLOSE
Current Station
Personal Weather Station
Location: Des Moines, IA
Elevation: 955 ft
Nearby Weather Stations

Elev 955 ft 41.60 °N, 93.68 °W | Updated 42 seconds ago

Snow
Snow
28.4 °F
Feels Like 28 °F
N
0.0
Wind Variable Wind from South
Gusts 0.0 mph

Today
High -- | Low -- °F
--% Chance of Precip.
Yesterday
High -- | Low -- °F
Precip. -- in
Pressure 30.30 in
Visibility 9.0 miles
Clouds Few 1700 ft
Scattered Clouds 2900 ft
Overcast 3800 ft
Windchill 28 °F
Dew Point 22 °F
Humidity 78%
Rainfall 0.00 in
Snow Depth Not available.
7:22 AM 5:35 PM
Waning Crescent, 8% visible
SPECI KDSM 060057Z 19007KT 9SM -SN FEW017 SCT029 OVC038 M01/M05 A3030 RMK AO2 P0000 T10111050
Pressure 30.30 in
Visibility 9.0 miles
Clouds Few 1700 ft
Scattered Clouds 2900 ft
Overcast 3800 ft
Windchill 28 °F
Dew Point 22 °F
Humidity 78%
Rainfall 0.00 in
Snow Depth Not available.
7:22 AM 5:35 PM
Waning Crescent, 8% visible
SPECI KDSM 060057Z 19007KT 9SM -SN FEW017 SCT029 OVC038 M01/M05 A3030 RMK AO2 P0000 T10111050

10-Day Weather Forecast

Almanac

Astronomy

Feb. 05, 2016 Rise Set
Actual Time
Civil Twilight
Nautical Twilight
Astronomical Twilight
Moon
Length of Visible Light
Length of Day
Tomorrow will be .
, % of the Moon is Illuminated

Today's Extremes

State Highs State Lows

Community

WunderPhotos

Upload Photos

1,890,902 photos uploaded!

WunderBlog® & News

Nearby

Air Quality

  Air Quality AQ Index Pollutant
Not available.

Snow Depth

Station Depth Elevation

Earthquake Activity

City Distance Mag. Time & Date
Minimum magnitude displayed is 2.5.

Coastal Water Temperatures

Place Temperature

Stations

Nearby Weather Stations

Station Location Temp. Windchill Dew Point Humidity Wind Precip. Elev Updated Type
                   

Watches & Warnings

There are currently no watches in effect.